createdAt,value
2017-09-14T00:00:26.188Z,83.72
2017-09-14T00:01:26.172Z,84.00
2017-09-14T00:02:26.161Z,84.48
2017-09-14T00:03:26.457Z,83.91
2017-09-14T00:04:26.151Z,84.00
2017-09-14T00:05:26.144Z,83.81
2017-09-14T00:06:26.132Z,84.00
2017-09-14T00:07:26.118Z,83.81
2017-09-14T00:08:26.103Z,84.00
2017-09-14T00:09:26.126Z,84.10
2017-09-14T00:10:26.068Z,83.62
2017-09-14T00:11:26.054Z,83.91
2017-09-14T00:12:26.043Z,83.81
2017-09-14T00:13:26.027Z,83.53
2017-09-14T00:14:26.057Z,83.81
2017-09-14T00:15:26.008Z,83.43
2017-09-14T00:16:26.005Z,83.62
2017-09-14T00:17:25.983Z,84.00
2017-09-14T00:18:25.978Z,83.34
2017-09-14T00:19:26.260Z,83.43
2017-09-14T00:20:25.956Z,83.62
2017-09-14T00:21:25.949Z,83.62
2017-09-14T00:22:25.920Z,83.53
2017-09-14T00:23:25.915Z,83.43
2017-09-14T00:24:25.901Z,84.00
2017-09-14T00:25:26.202Z,84.00
2017-09-14T00:26:25.875Z,83.81
2017-09-14T00:27:25.867Z,83.43
2017-09-14T00:28:25.859Z,83.62
2017-09-14T00:29:25.854Z,83.62
2017-09-14T00:30:25.841Z,83.72
2017-09-14T00:31:26.008Z,83.62
2017-09-14T00:32:25.803Z,83.72
2017-09-14T00:33:25.806Z,83.53
2017-09-14T00:34:25.776Z,83.53
2017-09-14T00:35:25.778Z,84.00
2017-09-14T00:36:25.786Z,83.62
2017-09-14T00:37:25.776Z,83.53
2017-09-14T00:38:25.733Z,83.81
2017-09-14T00:39:25.742Z,83.72
2017-09-14T00:40:25.702Z,84.00
2017-09-14T00:41:25.699Z,84.48
2017-09-14T00:42:25.992Z,84.39
2017-09-14T00:43:25.685Z,84.48
2017-09-14T00:44:25.657Z,84.39
2017-09-14T00:45:25.663Z,84.20
2017-09-14T00:46:25.645Z,84.00
2017-09-14T00:47:25.638Z,84.00
2017-09-14T00:48:25.961Z,83.81
2017-09-14T00:49:25.610Z,83.81
2017-09-14T00:50:25.585Z,83.91
2017-09-14T00:51:25.572Z,83.62
2017-09-14T00:52:25.566Z,83.43
2017-09-14T00:53:25.548Z,83.62
2017-09-14T00:54:25.596Z,83.53
2017-09-14T00:55:25.557Z,83.81
2017-09-14T00:56:25.518Z,83.81
2017-09-14T00:57:25.498Z,83.81
2017-09-14T00:58:25.801Z,83.62
2017-09-14T00:59:25.480Z,83.43
2017-09-14T01:00:25.459Z,83.72
2017-09-14T01:01:25.458Z,83.53
2017-09-14T01:02:25.453Z,83.62
2017-09-14T01:03:25.425Z,82.86
2017-09-14T01:04:25.443Z,82.95
2017-09-14T01:05:25.423Z,82.95
2017-09-14T01:06:25.397Z,82.76
2017-09-14T01:07:25.388Z,83.05
2017-09-14T01:08:25.677Z,82.76
2017-09-14T01:09:25.369Z,82.95
2017-09-14T01:10:25.353Z,82.67
2017-09-14T01:11:25.338Z,82.95
2017-09-14T01:12:25.329Z,82.86
2017-09-14T01:13:25.316Z,82.86
2017-09-14T01:14:25.319Z,83.43
2017-09-14T01:15:25.291Z,83.05
2017-09-14T01:16:25.285Z,83.05
2017-09-14T01:17:25.265Z,83.14
2017-09-14T01:18:25.698Z,83.43
2017-09-14T01:19:25.238Z,83.24
2017-09-14T01:20:25.230Z,83.34
2017-09-14T01:21:25.204Z,83.43
2017-09-14T01:22:25.198Z,83.62
2017-09-14T01:23:25.193Z,83.62
2017-09-14T01:24:25.529Z,83.62
2017-09-14T01:25:25.163Z,83.62
2017-09-14T01:26:25.157Z,83.81
2017-09-14T01:27:25.135Z,83.62
2017-09-14T01:28:25.137Z,83.81
2017-09-14T01:29:25.118Z,83.62
2017-09-14T01:30:25.398Z,83.53
2017-09-14T01:31:25.101Z,83.53
2017-09-14T01:32:25.086Z,83.91
2017-09-14T01:33:25.067Z,83.62
2017-09-14T01:34:25.047Z,83.53
2017-09-14T01:35:25.042Z,83.43
2017-09-14T01:36:25.466Z,83.81
2017-09-14T01:37:25.011Z,83.62
2017-09-14T01:38:25.005Z,84.00
2017-09-14T01:39:24.988Z,84.00
2017-09-14T01:40:24.992Z,83.77
2017-09-14T01:41:24.972Z,83.91
2017-09-14T01:42:25.323Z,83.53
2017-09-14T01:43:24.938Z,83.81
2017-09-14T01:44:24.927Z,83.81
2017-09-14T01:45:24.924Z,83.62
2017-09-14T01:46:24.915Z,83.81
2017-09-14T01:47:24.895Z,83.62
2017-09-14T01:48:25.183Z,83.62
2017-09-14T01:49:24.876Z,83.53
2017-09-14T01:50:24.862Z,84.00
2017-09-14T01:51:24.859Z,83.62
2017-09-14T01:52:24.845Z,83.53
2017-09-14T01:53:24.832Z,83.72
2017-09-14T01:54:25.024Z,83.81
2017-09-14T01:55:24.792Z,83.72
2017-09-14T01:56:24.794Z,83.81
2017-09-14T01:57:24.777Z,83.62
2017-09-14T01:58:24.766Z,83.43
2017-09-14T01:59:24.743Z,83.62
2017-09-14T02:00:25.055Z,83.81
2017-09-14T02:01:24.717Z,83.43
2017-09-14T02:02:24.721Z,83.24
2017-09-14T02:03:24.713Z,83.43
2017-09-14T02:04:24.687Z,82.95
2017-09-14T02:05:24.691Z,83.01
2017-09-14T02:06:25.043Z,83.29
2017-09-14T02:07:24.657Z,83.29
2017-09-14T02:08:24.645Z,82.63
2017-09-14T02:09:24.637Z,83.39
2017-09-14T02:10:24.620Z,83.39
2017-09-14T02:11:24.635Z,83.11
2017-09-14T02:12:24.631Z,83.20
2017-09-14T02:13:25.026Z,83.29
2017-09-14T02:14:24.571Z,83.29
2017-09-14T02:15:24.551Z,83.11
2017-09-14T02:16:24.535Z,83.29
2017-09-14T02:17:24.524Z,83.20
2017-09-14T02:18:24.526Z,83.01
2017-09-14T02:19:24.805Z,83.20
2017-09-14T02:20:24.484Z,83.20
2017-09-14T02:21:24.492Z,83.11
2017-09-14T02:22:24.469Z,83.01
2017-09-14T02:23:24.461Z,83.39
2017-09-14T02:24:24.436Z,83.29
2017-09-14T02:25:24.471Z,83.20
2017-09-14T02:26:24.428Z,83.39
2017-09-14T02:27:24.418Z,83.01
2017-09-14T02:28:24.791Z,83.20
2017-09-14T02:29:24.395Z,83.20
2017-09-14T02:30:24.392Z,83.39
2017-09-14T02:31:24.350Z,83.29
2017-09-14T02:32:24.352Z,83.01
2017-09-14T02:33:24.327Z,83.20
2017-09-14T02:34:24.615Z,83.39
2017-09-14T02:35:24.302Z,83.39
2017-09-14T02:36:24.303Z,83.29
2017-09-14T02:37:24.287Z,83.48
2017-09-14T02:38:24.276Z,83.77
2017-09-14T02:39:24.261Z,83.48
2017-09-14T02:40:24.269Z,83.29
2017-09-14T02:41:24.228Z,83.58
2017-09-14T02:42:24.223Z,83.87
2017-09-14T02:43:24.208Z,83.96
2017-09-14T02:44:24.205Z,84.16
2017-09-14T02:45:24.594Z,84.44
2017-09-14T02:46:24.173Z,83.96
2017-09-14T02:47:24.160Z,84.59
2017-09-14T02:48:24.172Z,84.34
2017-09-14T02:49:24.123Z,85.21
2017-09-14T02:50:24.135Z,84.82
2017-09-14T02:51:24.128Z,85.30
2017-09-14T02:52:24.102Z,84.92
2017-09-14T02:53:24.092Z,85.21
2017-09-14T02:54:24.064Z,85.21
2017-09-14T02:55:24.090Z,85.30
2017-09-14T02:56:24.050Z,85.11
2017-09-14T02:57:24.029Z,85.97
2017-09-14T02:58:24.016Z,85.58
2017-09-14T02:59:24.005Z,85.21
2017-09-14T03:00:24.029Z,85.35
2017-09-14T03:01:23.993Z,85.97
2017-09-14T03:02:23.967Z,85.54
2017-09-14T03:03:23.969Z,85.77
2017-09-14T03:04:23.946Z,86.16
2017-09-14T03:05:24.298Z,86.06
2017-09-14T03:06:23.927Z,86.63
2017-09-14T03:07:23.912Z,86.63
2017-09-14T03:08:23.907Z,85.73
2017-09-14T03:09:23.896Z,85.73
2017-09-14T03:10:23.880Z,85.87
2017-09-14T03:11:23.899Z,86.35
2017-09-14T03:12:23.846Z,86.44
2017-09-14T03:13:23.826Z,85.97
2017-09-14T03:14:23.817Z,86.54
2017-09-14T03:15:23.813Z,86.06
2017-09-14T03:16:23.819Z,86.44
2017-09-14T03:17:23.777Z,86.44
2017-09-14T03:18:23.766Z,86.44
2017-09-14T03:19:23.773Z,86.25
2017-09-14T03:20:23.743Z,85.68
2017-09-14T03:21:24.036Z,86.35
2017-09-14T03:22:23.716Z,85.77
2017-09-14T03:23:23.700Z,86.25
2017-09-14T03:24:23.707Z,86.25
2017-09-14T03:25:23.682Z,86.35
2017-09-14T03:26:23.674Z,85.87
2017-09-14T03:27:24.005Z,85.97
2017-09-14T03:28:23.646Z,85.77
2017-09-14T03:29:23.631Z,85.97
2017-09-14T03:30:23.623Z,85.97
2017-09-14T03:31:23.614Z,85.97
2017-09-14T03:32:23.592Z,86.16
2017-09-14T03:33:23.606Z,86.25
2017-09-14T03:34:23.580Z,85.97
2017-09-14T03:35:23.561Z,85.68
2017-09-14T03:36:23.598Z,85.68
2017-09-14T03:37:23.523Z,85.68
2017-09-14T03:38:23.525Z,85.68
2017-09-14T03:39:23.529Z,85.97
2017-09-14T03:40:23.502Z,85.58
2017-09-14T03:41:23.813Z,86.06
2017-09-14T03:42:23.464Z,85.97
2017-09-14T03:43:23.461Z,85.87
2017-09-14T03:44:23.453Z,85.68
2017-09-14T03:45:23.441Z,85.87
2017-09-14T03:46:23.415Z,85.87
2017-09-14T03:47:23.557Z,85.77
2017-09-14T03:48:23.404Z,86.16
2017-09-14T03:49:23.393Z,85.97
2017-09-14T03:50:23.366Z,85.68
2017-09-14T03:51:23.360Z,85.49
2017-09-14T03:52:23.375Z,86.16
2017-09-14T03:53:23.339Z,85.87
2017-09-14T03:54:23.318Z,85.77
2017-09-14T03:55:23.312Z,85.97
2017-09-14T03:56:23.609Z,85.49
2017-09-14T03:57:23.284Z,85.58
2017-09-14T03:58:23.277Z,85.58
2017-09-14T03:59:23.266Z,86.06
2017-09-14T04:00:23.251Z,85.39
2017-09-14T04:01:23.235Z,85.49
2017-09-14T04:02:23.254Z,85.49
2017-09-14T04:03:23.218Z,85.39
2017-09-14T04:04:23.198Z,86.06
2017-09-14T04:05:23.193Z,85.68
2017-09-14T04:06:23.195Z,85.77
2017-09-14T04:07:23.156Z,85.77
2017-09-14T04:08:23.150Z,85.68
2017-09-14T04:09:23.138Z,85.39
2017-09-14T04:10:23.118Z,85.39
2017-09-14T04:11:23.147Z,85.49
2017-09-14T04:12:23.106Z,85.68
2017-09-14T04:13:23.081Z,85.97
2017-09-14T04:14:23.063Z,85.58
2017-09-14T04:15:23.068Z,85.58
2017-09-14T04:16:23.484Z,85.39
2017-09-14T04:17:23.042Z,85.97
2017-09-14T04:18:23.018Z,85.21
2017-09-14T04:19:23.030Z,85.49
2017-09-14T04:20:22.992Z,85.87
2017-09-14T04:21:23.001Z,85.49
2017-09-14T04:22:22.991Z,85.39
2017-09-14T04:23:22.973Z,85.49
2017-09-14T04:24:22.948Z,85.58
2017-09-14T04:25:22.939Z,85.77
2017-09-14T04:26:22.923Z,85.87
2017-09-14T04:27:23.278Z,85.39
2017-09-14T04:28:22.904Z,85.49
2017-09-14T04:29:22.875Z,85.97
2017-09-14T04:30:22.884Z,85.21
2017-09-14T04:31:22.852Z,85.58
2017-09-14T04:32:22.842Z,85.97
2017-09-14T04:33:22.862Z,85.39
2017-09-14T04:34:22.832Z,85.30
2017-09-14T04:35:22.806Z,85.77
2017-09-14T04:36:22.793Z,85.77
2017-09-14T04:37:22.797Z,85.01
2017-09-14T04:38:23.227Z,85.39
2017-09-14T04:39:22.761Z,85.77
2017-09-14T04:40:22.745Z,85.87
2017-09-14T04:41:22.729Z,85.39
2017-09-14T04:42:22.726Z,85.77
2017-09-14T04:43:22.700Z,85.77
2017-09-14T04:44:23.081Z,85.87
2017-09-14T04:45:22.686Z,85.87
2017-09-14T04:46:22.680Z,85.49
2017-09-14T04:47:22.654Z,85.21
2017-09-14T04:48:22.639Z,85.30
2017-09-14T04:49:22.638Z,85.21
2017-09-14T04:50:22.888Z,85.21
2017-09-14T04:51:22.602Z,85.21
2017-09-14T04:52:22.605Z,85.11
2017-09-14T04:53:22.579Z,84.92
2017-09-14T04:54:22.565Z,85.21
2017-09-14T04:55:22.561Z,85.21
2017-09-14T04:56:22.577Z,84.92
2017-09-14T04:57:22.534Z,85.01
2017-09-14T04:58:22.747Z,85.11
2017-09-14T04:59:22.509Z,85.21
2017-09-14T05:00:22.496Z,85.30
2017-09-14T05:01:22.489Z,85.01
2017-09-14T05:02:22.480Z,84.92
2017-09-14T05:03:22.469Z,85.21
2017-09-14T05:04:22.751Z,85.49
2017-09-14T05:05:22.435Z,85.11
2017-09-14T05:06:22.415Z,85.01
2017-09-14T05:07:22.420Z,85.01
2017-09-14T05:08:22.392Z,85.87
2017-09-14T05:09:22.380Z,85.77
2017-09-14T05:10:22.601Z,85.58
2017-09-14T05:11:22.358Z,85.77
2017-09-14T05:12:22.343Z,85.68
2017-09-14T05:13:22.343Z,85.68
2017-09-14T05:14:22.326Z,85.77
2017-09-14T05:15:22.314Z,85.58
2017-09-14T05:16:22.576Z,85.68
2017-09-14T05:17:22.295Z,85.49
2017-09-14T05:18:22.268Z,85.68
2017-09-14T05:19:22.265Z,85.87
2017-09-14T05:20:22.261Z,85.58
2017-09-14T05:21:22.249Z,84.92
2017-09-14T05:22:22.250Z,85.01
2017-09-14T05:23:22.215Z,85.30
2017-09-14T05:24:22.479Z,85.68
2017-09-14T05:25:22.189Z,85.49
2017-09-14T05:26:22.172Z,85.58
2017-09-14T05:27:22.167Z,85.77
2017-09-14T05:28:22.156Z,85.58
2017-09-14T05:29:22.127Z,85.87
2017-09-14T05:30:22.342Z,85.77
2017-09-14T05:31:22.106Z,85.68
2017-09-14T05:32:22.093Z,86.25
2017-09-14T05:33:22.083Z,86.06
2017-09-14T05:34:22.087Z,85.97
2017-09-14T05:35:22.051Z,85.77
2017-09-14T05:36:22.087Z,85.68
2017-09-14T05:37:22.029Z,85.87
2017-09-14T05:38:22.031Z,86.25
2017-09-14T05:39:22.009Z,85.77
2017-09-14T05:40:22.322Z,86.25
2017-09-14T05:41:21.979Z,85.87
2017-09-14T05:42:21.968Z,86.06
2017-09-14T05:43:23.533Z,85.97
2017-09-14T05:44:21.964Z,85.97
2017-09-14T05:45:21.954Z,85.68
2017-09-14T05:46:21.965Z,86.06
2017-09-14T05:47:21.915Z,85.87
2017-09-14T05:48:21.902Z,86.06
2017-09-14T05:49:21.893Z,85.97
2017-09-14T05:50:22.085Z,85.77
2017-09-14T05:51:21.871Z,85.97
2017-09-14T05:52:21.843Z,86.16
2017-09-14T05:53:21.835Z,85.87
2017-09-14T05:54:21.816Z,86.06
2017-09-14T05:55:21.824Z,85.68
2017-09-14T05:56:22.105Z,85.97
2017-09-14T05:57:21.809Z,85.68
2017-09-14T05:58:21.766Z,85.21
2017-09-14T05:59:21.764Z,85.21
2017-09-14T06:00:21.755Z,85.21
2017-09-14T06:01:21.741Z,85.87
2017-09-14T06:02:22.166Z,85.11
2017-09-14T06:03:21.706Z,85.77
2017-09-14T06:04:21.705Z,86.06
2017-09-14T06:05:21.692Z,85.11
2017-09-14T06:06:21.680Z,85.68
2017-09-14T06:07:21.655Z,85.11
2017-09-14T06:08:21.940Z,85.39
2017-09-14T06:09:21.634Z,85.11
2017-09-14T06:10:21.618Z,85.11
2017-09-14T06:11:21.622Z,85.21
2017-09-14T06:12:21.591Z,85.77
2017-09-14T06:13:21.595Z,85.21
2017-09-14T06:14:21.797Z,85.21
2017-09-14T06:15:21.556Z,85.01
2017-09-14T06:16:21.555Z,84.44
2017-09-14T06:17:21.550Z,84.34
2017-09-14T06:18:21.522Z,84.92
2017-09-14T06:19:21.517Z,84.25
2017-09-14T06:20:21.535Z,85.39
2017-09-14T06:21:21.493Z,85.11
2017-09-14T06:22:21.484Z,85.21
2017-09-14T06:23:21.458Z,85.21
2017-09-14T06:24:21.461Z,85.11
2017-09-14T06:25:21.863Z,84.82
2017-09-14T06:26:21.435Z,85.21
2017-09-14T06:27:21.423Z,85.01
2017-09-14T06:28:21.397Z,85.25
2017-09-14T06:29:21.397Z,84.44
2017-09-14T06:30:21.376Z,84.44
2017-09-14T06:31:21.675Z,84.53
2017-09-14T06:32:21.357Z,84.00
2017-09-14T06:33:21.346Z,83.72
2017-09-14T06:34:21.333Z,84.00
2017-09-14T06:35:21.322Z,84.29
2017-09-14T06:36:21.318Z,83.91
2017-09-14T06:37:21.669Z,84.48
2017-09-14T06:38:21.294Z,84.48
2017-09-14T06:39:21.259Z,84.39
2017-09-14T06:40:21.252Z,84.48
2017-09-14T06:41:21.249Z,83.91
2017-09-14T06:42:21.241Z,83.81
2017-09-14T06:43:21.434Z,83.58
2017-09-14T06:44:21.208Z,83.72
2017-09-14T06:45:21.198Z,83.91
2017-09-14T06:46:21.174Z,83.91
2017-09-14T06:47:21.175Z,83.62
2017-09-14T06:48:21.162Z,83.77
2017-09-14T06:49:21.468Z,83.72
2017-09-14T06:50:21.140Z,83.81
2017-09-14T06:51:21.118Z,84.29
2017-09-14T06:52:21.121Z,84.20
2017-09-14T06:53:21.098Z,84.86
2017-09-14T06:54:21.074Z,84.20
2017-09-14T06:55:21.113Z,83.91
2017-09-14T06:56:21.067Z,83.91
2017-09-14T06:57:21.039Z,84.58
2017-09-14T06:58:21.349Z,83.62
2017-09-14T06:59:21.032Z,83.81
2017-09-14T07:00:21.010Z,83.62
2017-09-14T07:01:21.005Z,83.24
2017-09-14T07:02:20.983Z,83.53
2017-09-14T07:03:20.966Z,83.53
2017-09-14T07:04:21.361Z,83.81
2017-09-14T07:05:20.947Z,83.62
2017-09-14T07:06:20.932Z,83.43
2017-09-14T07:07:20.931Z,83.81
2017-09-14T07:08:20.924Z,84.48
2017-09-14T07:09:20.908Z,84.00
2017-09-14T07:10:21.097Z,84.39
2017-09-14T07:11:20.888Z,84.20
2017-09-14T07:12:20.870Z,84.29
2017-09-14T07:13:20.851Z,84.48
2017-09-14T07:14:20.834Z,83.81
2017-09-14T07:15:20.835Z,83.62
2017-09-14T07:16:20.849Z,83.53
2017-09-14T07:17:20.806Z,83.81
2017-09-14T07:18:20.787Z,83.91
2017-09-14T07:19:21.194Z,83.91
2017-09-14T07:20:20.776Z,84.00
2017-09-14T07:21:20.746Z,83.62
2017-09-14T07:22:20.748Z,83.91
2017-09-14T07:23:20.737Z,84.00
2017-09-14T07:24:20.722Z,84.10
2017-09-14T07:25:21.018Z,83.81
2017-09-14T07:26:20.705Z,83.91
2017-09-14T07:27:20.681Z,83.43
2017-09-14T07:28:20.677Z,83.34
2017-09-14T07:29:20.663Z,83.05
2017-09-14T07:30:20.652Z,83.81
2017-09-14T07:31:20.996Z,83.34
2017-09-14T07:32:20.619Z,83.24
2017-09-14T07:33:20.608Z,82.76
2017-09-14T07:34:20.607Z,82.76
2017-09-14T07:35:20.604Z,83.05
2017-09-14T07:36:20.568Z,82.95
2017-09-14T07:37:20.782Z,83.05
2017-09-14T07:38:20.560Z,83.14
2017-09-14T07:39:20.547Z,82.67
2017-09-14T07:40:20.524Z,82.86
2017-09-14T07:41:20.526Z,83.34
2017-09-14T07:42:20.500Z,83.05
2017-09-14T07:43:20.532Z,82.86
2017-09-14T07:44:20.474Z,82.86
2017-09-14T07:45:20.462Z,82.76
2017-09-14T07:46:20.479Z,83.00
2017-09-14T07:47:20.744Z,83.18
2017-09-14T07:48:20.434Z,83.00
2017-09-14T07:49:20.425Z,82.81
2017-09-14T07:50:20.422Z,82.23
2017-09-14T07:51:21.072Z,81.95
2017-09-14T07:52:20.388Z,82.32
2017-09-14T07:54:02.446Z,81.76
2017-09-14T07:54:22.106Z,82.04
2017-09-14T07:55:22.439Z,81.33
2017-09-14T07:56:22.426Z,81.52
2017-09-14T07:58:55.759Z,81.76
2017-09-14T07:59:55.111Z,81.76
2017-09-14T08:00:57.589Z,81.27
2017-09-14T08:01:55.282Z,81.27
2017-09-14T08:02:55.809Z,81.14
2017-09-14T08:03:57.156Z,80.95
2017-09-14T08:04:56.538Z,81.33
2017-09-14T08:05:54.955Z,81.76
2017-09-14T08:06:54.768Z,81.71
2017-09-14T08:07:54.781Z,81.43
2017-09-14T08:08:54.742Z,81.62
2017-09-14T08:09:54.728Z,81.90
2017-09-14T08:10:54.765Z,82.09
2017-09-14T08:11:56.529Z,82.00
2017-09-14T08:12:56.620Z,82.09
2017-09-14T08:13:54.693Z,81.90
2017-09-14T08:14:54.687Z,81.81
2017-09-14T08:15:54.703Z,82.90
2017-09-14T08:16:54.656Z,82.76
2017-09-14T08:17:54.652Z,82.86
2017-09-14T08:18:55.664Z,83.62
2017-09-14T08:19:55.779Z,84.20
2017-09-14T08:20:56.716Z,84.67
2017-09-14T08:22:02.959Z,85.82
2017-09-14T08:22:55.602Z,86.01
2017-09-14T08:23:54.580Z,85.82
2017-09-14T08:24:54.580Z,86.39
2017-09-14T08:25:54.547Z,85.91
2017-09-14T08:26:54.892Z,85.25
2017-09-14T08:27:55.108Z,82.63
2017-09-14T08:28:54.520Z,83.01
2017-09-14T08:29:54.504Z,83.58
2017-09-14T08:30:54.494Z,84.34
2017-09-14T08:31:54.469Z,85.01
2017-09-14T08:32:54.952Z,85.21
2017-09-14T08:33:54.477Z,84.97
2017-09-14T08:34:54.437Z,84.88
2017-09-14T08:35:54.429Z,85.25
2017-09-14T08:36:54.417Z,85.35
2017-09-14T08:37:54.404Z,86.11
2017-09-14T08:38:54.437Z,86.02
2017-09-14T08:39:54.382Z,86.49
2017-09-14T08:40:54.573Z,86.59
2017-09-14T08:41:54.357Z,87.07
2017-09-14T08:42:54.346Z,87.64
2017-09-14T08:43:54.346Z,86.98
2017-09-14T08:44:54.317Z,87.26
2017-09-14T08:45:54.314Z,87.83
2017-09-14T08:46:55.660Z,88.40
2017-09-14T08:47:59.099Z,88.59
2017-09-14T08:48:54.264Z,88.69
2017-09-14T08:49:54.251Z,88.50
2017-09-14T08:50:54.227Z,89.21
2017-09-14T08:51:54.236Z,89.78
2017-09-14T08:52:54.429Z,89.40
2017-09-14T08:53:54.282Z,90.07
2017-09-14T08:54:54.218Z,89.88
2017-09-14T08:55:54.206Z,90.17
2017-09-14T08:56:54.168Z,89.21
2017-09-14T08:57:54.175Z,89.21
2017-09-14T08:58:54.528Z,89.31
2017-09-14T08:59:54.121Z,87.68
2017-09-14T09:00:54.101Z,87.68
2017-09-14T09:01:54.111Z,87.49
2017-09-14T09:02:54.084Z,87.49
2017-09-14T09:03:54.071Z,87.49
2017-09-14T09:04:54.100Z,86.63
2017-09-14T09:05:54.046Z,87.02
2017-09-14T09:06:54.061Z,86.25
2017-09-14T09:07:54.036Z,86.73
2017-09-14T09:08:54.326Z,87.11
2017-09-14T09:09:53.999Z,86.35
2017-09-14T09:10:53.976Z,85.97
2017-09-14T09:11:53.963Z,86.63
2017-09-14T09:12:53.948Z,86.92
2017-09-14T09:13:54.116Z,86.54
2017-09-14T09:14:54.307Z,86.35
2017-09-14T09:15:54.613Z,86.54
2017-09-14T09:16:53.903Z,86.63
2017-09-14T09:17:53.907Z,86.25
2017-09-14T09:18:53.904Z,86.82
2017-09-14T09:19:53.888Z,87.11
2017-09-14T09:20:54.115Z,87.40
2017-09-14T09:21:53.845Z,87.59
2017-09-14T09:22:53.851Z,86.73
2017-09-14T09:23:53.820Z,86.25
2017-09-14T09:24:53.813Z,86.82
2017-09-14T09:25:53.796Z,86.54
2017-09-14T09:26:54.100Z,86.35
2017-09-14T09:27:53.757Z,86.63
2017-09-14T09:28:53.748Z,86.63
2017-09-14T09:29:53.745Z,87.30
2017-09-14T09:30:53.741Z,86.92
2017-09-14T09:31:53.714Z,86.25
2017-09-14T09:32:59.453Z,86.44
2017-09-14T09:33:54.377Z,86.73
2017-09-14T09:34:53.673Z,87.02
2017-09-14T09:35:54.113Z,86.44
2017-09-14T09:36:53.692Z,86.92
2017-09-14T09:37:53.662Z,86.92
2017-09-14T09:38:55.608Z,87.02
2017-09-14T09:39:54.707Z,86.82
2017-09-14T09:40:53.625Z,86.63
2017-09-14T09:42:09.353Z,87.49
2017-09-14T09:42:56.071Z,86.63
2017-09-14T09:44:09.778Z,86.06
2017-09-14T09:44:56.844Z,85.49
2017-09-14T09:45:53.547Z,86.54
2017-09-14T09:46:54.212Z,85.21
2017-09-14T09:47:53.516Z,83.91
2017-09-14T09:48:53.656Z,84.34
2017-09-14T09:49:53.504Z,83.29
2017-09-14T09:50:53.475Z,82.82
2017-09-14T09:51:53.476Z,82.15
2017-09-14T09:52:53.459Z,82.43
2017-09-14T09:53:53.448Z,81.01
2017-09-14T09:54:53.647Z,80.43
2017-09-14T09:55:53.426Z,80.33
2017-09-14T09:56:53.412Z,81.38
2017-09-14T09:57:53.384Z,82.15
2017-09-14T09:58:53.383Z,81.29
2017-09-14T09:59:53.395Z,81.38
2017-09-14T10:00:53.707Z,80.91
2017-09-14T10:01:53.338Z,79.77
2017-09-14T10:02:53.339Z,80.91
2017-09-14T10:03:53.316Z,80.91
2017-09-14T10:04:53.313Z,81.58
2017-09-14T10:05:53.287Z,81.29
2017-09-14T10:06:53.598Z,81.01
2017-09-14T10:07:53.269Z,79.10
2017-09-14T10:08:53.261Z,79.48
2017-09-14T10:09:53.245Z,80.33
2017-09-14T10:10:53.239Z,80.43
2017-09-14T10:11:53.212Z,81.01
2017-09-14T10:12:53.573Z,79.86
2017-09-14T10:13:53.192Z,79.96
2017-09-14T10:14:53.178Z,80.91
2017-09-14T10:15:53.175Z,80.72
2017-09-14T10:16:53.170Z,80.05
2017-09-14T10:17:53.151Z,80.53
2017-09-14T10:18:53.177Z,80.15
2017-09-14T10:19:53.117Z,79.77
2017-09-14T10:20:53.118Z,81.29
2017-09-14T10:21:53.093Z,81.48
2017-09-14T10:22:53.104Z,81.58
2017-09-14T10:23:53.062Z,80.43
2017-09-14T10:24:53.443Z,81.96
2017-09-14T10:25:53.055Z,81.67
2017-09-14T10:26:53.046Z,82.06
2017-09-14T10:27:53.020Z,81.96
2017-09-14T10:28:53.016Z,82.15
2017-09-14T10:29:53.008Z,83.20
2017-09-14T10:30:53.301Z,82.68
2017-09-14T10:31:52.980Z,82.43
2017-09-14T10:32:52.964Z,82.63
2017-09-14T10:33:52.955Z,82.91
2017-09-14T10:34:52.936Z,82.97
2017-09-14T10:35:52.923Z,83.16
2017-09-14T10:36:52.938Z,83.39
2017-09-14T10:37:52.897Z,84.11
2017-09-14T10:38:52.893Z,84.20
2017-09-14T10:39:52.870Z,85.21
2017-09-14T10:40:53.161Z,84.11
2017-09-14T10:41:52.858Z,85.01
2017-09-14T10:42:52.871Z,85.77
2017-09-14T10:43:52.829Z,85.83
2017-09-14T10:44:52.814Z,85.83
2017-09-14T10:45:52.808Z,85.58
2017-09-14T10:46:53.128Z,85.68
2017-09-14T10:47:52.784Z,85.11
2017-09-14T10:48:52.768Z,85.39
2017-09-14T10:49:52.744Z,85.11
2017-09-14T10:50:52.743Z,85.01
2017-09-14T10:51:52.747Z,85.49
2017-09-14T10:52:53.068Z,85.21
2017-09-14T10:53:52.694Z,84.44
2017-09-14T10:54:52.686Z,85.01
2017-09-14T10:55:52.704Z,84.34
2017-09-14T10:56:53.313Z,83.48
2017-09-14T10:57:53.428Z,82.63
2017-09-14T10:58:53.711Z,84.44
2017-09-14T10:59:53.302Z,82.82
2017-09-14T11:00:53.423Z,83.58
2017-09-14T11:01:53.415Z,84.44
2017-09-14T11:02:52.581Z,82.63
2017-09-14T11:03:52.746Z,83.01
2017-09-14T11:04:52.571Z,82.53
2017-09-14T11:05:52.912Z,82.43
2017-09-14T11:06:52.543Z,82.63
2017-09-14T11:07:52.533Z,81.62
2017-09-14T11:08:52.523Z,83.05
2017-09-14T11:09:52.938Z,81.04
2017-09-14T11:10:52.490Z,80.85
2017-09-14T11:11:52.479Z,80.76
2017-09-14T11:12:52.478Z,81.24
2017-09-14T11:13:52.455Z,82.00
2017-09-14T11:14:52.447Z,82.00
2017-09-14T11:15:52.458Z,80.95
2017-09-14T11:16:52.417Z,78.94
2017-09-14T11:17:52.411Z,79.52
2017-09-14T11:18:52.392Z,77.42
2017-09-14T11:19:52.597Z,77.89
2017-09-14T11:20:52.370Z,78.56
2017-09-14T11:21:52.351Z,79.04
2017-09-14T11:22:52.358Z,80.09
2017-09-14T11:23:52.331Z,78.94
2017-09-14T11:24:52.323Z,79.33
2017-09-14T11:25:52.614Z,78.31
2017-09-14T11:26:52.306Z,78.22
2017-09-14T11:27:52.290Z,78.13
2017-09-14T11:28:52.281Z,78.70
2017-09-14T11:29:52.273Z,78.31
2017-09-14T11:30:52.254Z,79.56
2017-09-14T11:31:52.690Z,79.27
2017-09-14T11:32:52.237Z,78.70
2017-09-14T11:33:52.221Z,76.40
2017-09-14T11:34:52.210Z,76.79
2017-09-14T11:35:52.190Z,77.36
2017-09-14T11:36:52.204Z,77.36
2017-09-14T11:37:52.491Z,78.03
2017-09-14T11:38:52.151Z,78.64
2017-09-14T11:39:52.156Z,76.64
2017-09-14T11:40:52.132Z,77.21
2017-09-14T11:41:52.128Z,77.87
2017-09-14T11:42:52.113Z,77.30
2017-09-14T11:43:52.136Z,77.97
2017-09-14T11:44:52.097Z,76.25
2017-09-14T11:45:52.081Z,75.68
2017-09-14T11:46:52.391Z,76.06
2017-09-14T11:47:52.084Z,76.64
2017-09-14T11:48:52.056Z,75.87
2017-09-14T11:49:52.042Z,75.49
2017-09-14T11:50:52.028Z,74.82
2017-09-14T11:51:52.008Z,75.30
2017-09-14T11:52:52.321Z,74.91
2017-09-14T11:53:51.995Z,75.20
2017-09-14T11:54:52.015Z,76.25
2017-09-14T11:55:51.984Z,75.30
2017-09-14T11:56:51.976Z,74.53
2017-09-14T11:57:51.965Z,75.30
2017-09-14T11:58:52.341Z,75.30
2017-09-14T11:59:51.931Z,75.49
2017-09-14T12:00:51.902Z,74.44
2017-09-14T12:01:51.915Z,74.15
2017-09-14T12:02:51.900Z,74.63
2017-09-14T12:03:51.885Z,75.20
2017-09-14T12:04:52.315Z,76.25
2017-09-14T12:05:51.859Z,75.30
2017-09-14T12:06:51.843Z,76.35
2017-09-14T12:07:51.837Z,76.35
2017-09-14T12:08:51.827Z,75.39
2017-09-14T12:09:51.814Z,75.49
2017-09-14T12:10:52.201Z,75.30
2017-09-14T12:11:51.830Z,74.63
2017-09-14T12:12:51.810Z,75.39
2017-09-14T12:13:51.766Z,73.39
2017-09-14T12:14:51.753Z,73.61
2017-09-14T12:15:51.755Z,73.96
2017-09-14T12:16:51.772Z,74.34
2017-09-14T12:17:51.938Z,74.44
2017-09-14T12:18:51.703Z,73.96
2017-09-14T12:19:51.702Z,75.62
2017-09-14T12:20:51.692Z,74.38
2017-09-14T12:21:51.672Z,74.95
2017-09-14T12:22:51.661Z,74.95
2017-09-14T12:23:52.004Z,73.04
2017-09-14T12:24:51.642Z,72.28
2017-09-14T12:25:51.633Z,72.56
2017-09-14T12:26:51.627Z,72.56
2017-09-14T12:27:51.612Z,71.03
2017-09-14T12:28:51.598Z,70.65
2017-09-14T12:29:51.624Z,69.41
2017-09-14T12:30:51.573Z,70.65
2017-09-14T12:31:51.564Z,71.89
2017-09-14T12:32:51.567Z,72.18
2017-09-14T12:33:51.772Z,72.37
2017-09-14T12:34:51.541Z,71.61
2017-09-14T12:35:51.534Z,71.99
2017-09-14T12:36:51.514Z,70.56
2017-09-14T12:37:51.501Z,70.75
2017-09-14T12:38:51.493Z,69.98
2017-09-14T12:39:52.201Z,70.56
2017-09-14T12:40:51.565Z,69.98
2017-09-14T12:41:51.768Z,68.74
2017-09-14T12:42:53.202Z,68.93
2017-09-14T12:43:51.453Z,69.60
2017-09-14T12:44:51.450Z,70.56
2017-09-14T12:45:51.789Z,69.31
2017-09-14T12:46:51.407Z,69.92
2017-09-14T12:51:14.756Z,69.25
2017-09-14T12:51:49.126Z,70.01
2017-09-14T12:53:13.039Z,68.96
2017-09-14T13:01:01.910Z,69.25
2017-09-14T13:02:01.612Z,69.60
2017-09-14T13:03:01.475Z,69.21
2017-09-14T13:04:02.361Z,69.79